createdAt,value
2023-07-03T00:00:55.270Z,20.18
2023-07-03T00:01:59.535Z,20.21
2023-07-03T00:03:03.674Z,20.25
2023-07-03T00:04:05.815Z,20.27
2023-07-03T00:05:12.582Z,20.21
2023-07-03T00:06:14.447Z,20.33
2023-07-03T00:07:16.697Z,20.16
2023-07-03T00:08:19.321Z,20.25
2023-07-03T00:09:21.242Z,20.23
2023-07-03T00:10:23.268Z,20.24
2023-07-03T00:11:25.217Z,20.17
2023-07-03T00:12:27.516Z,20.20
2023-07-03T00:13:29.619Z,20.36
2023-07-03T00:14:31.507Z,20.26
2023-07-03T00:15:33.544Z,20.22
2023-07-03T00:16:35.467Z,20.31
2023-07-03T00:17:38.778Z,20.30
2023-07-03T00:18:40.832Z,20.27
2023-07-03T00:19:42.774Z,20.36
2023-07-03T00:20:47.106Z,20.41
2023-07-03T00:21:49.258Z,20.37
2023-07-03T00:22:54.024Z,20.27
2023-07-03T00:23:55.906Z,20.31
2023-07-03T00:24:57.833Z,20.30
2023-07-03T00:25:59.828Z,20.25
2023-07-03T00:27:02.305Z,20.24
2023-07-03T00:28:04.712Z,20.23
2023-07-03T00:29:06.780Z,20.26
2023-07-03T00:30:09.305Z,20.15
2023-07-03T00:31:11.347Z,20.26
2023-07-03T00:32:13.416Z,20.31
2023-07-03T00:33:15.714Z,20.31
2023-07-03T00:34:19.967Z,20.20
2023-07-03T00:35:22.021Z,20.09
2023-07-03T00:36:24.015Z,20.06
2023-07-03T00:37:26.275Z,20.02
2023-07-03T00:38:28.544Z,20.02
2023-07-03T00:39:30.477Z,19.98
2023-07-03T00:40:32.433Z,20.03
2023-07-03T00:41:34.431Z,20.05
2023-07-03T00:42:37.533Z,19.90
2023-07-03T00:43:42.511Z,19.95
2023-07-03T00:44:44.522Z,19.90
2023-07-03T00:45:47.788Z,19.96
2023-07-03T00:46:51.926Z,19.91
2023-07-03T00:47:54.372Z,19.67
2023-07-03T00:48:57.594Z,19.70
2023-07-03T00:50:00.785Z,19.91
2023-07-03T00:51:03.136Z,19.77
2023-07-03T00:52:06.242Z,19.79
2023-07-03T00:53:08.680Z,19.76
2023-07-03T00:54:11.750Z,19.88
2023-07-03T00:55:15.019Z,19.89
2023-07-03T00:56:16.951Z,19.85
2023-07-03T00:57:18.988Z,19.78
2023-07-03T00:58:21.046Z,19.72
2023-07-03T00:59:23.428Z,19.55
2023-07-03T01:00:34.259Z,19.68
2023-07-03T01:01:44.920Z,19.80
2023-07-03T01:03:08.035Z,19.87
2023-07-03T01:04:41.974Z,19.97
2023-07-03T01:05:51.307Z,19.74
2023-07-03T01:07:01.510Z,19.70
2023-07-03T01:08:03.501Z,19.65
2023-07-03T01:09:05.765Z,19.67
2023-07-03T01:10:15.314Z,19.77
2023-07-03T01:11:20.401Z,19.76
2023-07-03T01:12:24.656Z,19.80
2023-07-03T01:13:30.725Z,19.67
2023-07-03T01:14:35.083Z,19.50
2023-07-03T01:15:41.601Z,19.59
2023-07-03T01:16:46.860Z,19.63
2023-07-03T01:17:52.431Z,19.66
2023-07-03T01:18:54.815Z,19.36
2023-07-03T01:19:59.092Z,19.45
2023-07-03T01:21:24.586Z,19.45
2023-07-03T01:22:31.773Z,19.42
2023-07-03T01:23:52.872Z,19.36
2023-07-03T01:25:11.291Z,19.43
2023-07-03T01:26:16.018Z,19.43
2023-07-03T01:27:22.132Z,19.21
2023-07-03T01:28:26.515Z,19.06
2023-07-03T01:29:29.672Z,19.26
2023-07-03T01:30:32.836Z,19.33
2023-07-03T01:31:37.098Z,19.27
2023-07-03T01:32:39.533Z,19.12
2023-07-03T01:33:45.900Z,18.92
2023-07-03T01:34:50.041Z,18.81
2023-07-03T01:35:55.000Z,19.03
2023-07-03T01:36:59.779Z,19.11
2023-07-03T01:38:02.911Z,19.08
2023-07-03T01:39:05.746Z,19.31
2023-07-03T01:40:13.919Z,19.34
2023-07-03T01:41:17.773Z,19.34
2023-07-03T01:42:26.341Z,19.29
2023-07-03T01:43:29.299Z,19.03
2023-07-03T01:44:31.636Z,19.03
2023-07-03T01:45:45.116Z,18.99
2023-07-03T01:46:47.171Z,18.81
2023-07-03T01:47:49.460Z,18.81
2023-07-03T01:48:51.537Z,18.89
2023-07-03T01:49:53.886Z,18.75
2023-07-03T01:50:55.972Z,18.76
2023-07-03T01:52:17.941Z,18.55
2023-07-03T01:53:26.608Z,18.48
2023-07-03T01:54:36.752Z,18.50
2023-07-03T01:55:51.186Z,18.36
2023-07-03T01:56:56.080Z,18.29
2023-07-03T01:58:09.846Z,18.30
2023-07-03T01:59:15.541Z,18.24
2023-07-03T02:00:27.311Z,18.26
2023-07-03T02:01:38.698Z,18.18
2023-07-03T02:02:43.872Z,18.31
2023-07-03T02:03:53.571Z,18.14
2023-07-03T02:05:10.362Z,18.03
2023-07-03T02:06:21.650Z,18.07
2023-07-03T02:07:25.540Z,18.01
2023-07-03T02:08:30.514Z,18.04
2023-07-03T02:09:33.557Z,18.16
2023-07-03T02:10:36.329Z,18.24
2023-07-03T02:11:38.452Z,18.16
2023-07-03T02:12:46.124Z,18.15
2023-07-03T02:13:49.452Z,18.14
2023-07-03T02:14:51.923Z,18.24
2023-07-03T02:15:53.902Z,18.33
2023-07-03T02:16:56.071Z,18.26
2023-07-03T02:17:58.478Z,18.17
2023-07-03T02:19:00.822Z,18.30
2023-07-03T02:20:03.674Z,18.29
2023-07-03T02:21:06.441Z,18.10
2023-07-03T02:22:08.890Z,18.23
2023-07-03T02:23:12.706Z,18.20
2023-07-03T02:24:17.249Z,18.07
2023-07-03T02:25:19.249Z,18.05
2023-07-03T02:26:21.227Z,18.10
2023-07-03T02:27:23.178Z,18.29
2023-07-03T02:28:25.180Z,18.26
2023-07-03T02:29:27.547Z,18.24
2023-07-03T02:30:29.497Z,18.34
2023-07-03T02:31:31.601Z,18.36
2023-07-03T02:32:38.770Z,18.47
2023-07-03T02:33:40.749Z,18.59
2023-07-03T02:34:42.988Z,18.57
2023-07-03T02:35:45.036Z,18.65
2023-07-03T02:36:47.221Z,18.64
2023-07-03T02:37:49.347Z,18.53
2023-07-03T02:38:51.507Z,18.36
2023-07-03T02:39:53.792Z,18.33
2023-07-03T02:40:55.702Z,18.30
2023-07-03T02:41:58.958Z,18.46
2023-07-03T02:43:01.176Z,18.37
2023-07-03T02:44:03.160Z,18.29
2023-07-03T02:45:07.414Z,18.38
2023-07-03T02:46:09.827Z,18.31
2023-07-03T02:47:12.036Z,18.34
2023-07-03T02:48:15.018Z,18.28
2023-07-03T02:49:18.540Z,18.37
2023-07-03T02:50:21.062Z,18.46
2023-07-03T02:51:23.195Z,18.42
2023-07-03T02:52:28.326Z,18.37
2023-07-03T02:53:30.571Z,18.54
2023-07-03T02:54:33.909Z,18.57
2023-07-03T02:55:36.573Z,18.59
2023-07-03T02:56:39.256Z,18.45
2023-07-03T02:57:41.930Z,18.41
2023-07-03T02:58:44.150Z,18.30
2023-07-03T02:59:46.505Z,18.18
2023-07-03T03:00:49.378Z,18.25
2023-07-03T03:01:51.626Z,18.11
2023-07-03T03:02:54.153Z,18.10
2023-07-03T03:03:56.739Z,18.08
2023-07-03T03:04:59.067Z,18.13
2023-07-03T03:06:01.767Z,18.13
2023-07-03T03:07:03.779Z,18.14
2023-07-03T03:08:05.687Z,18.08
2023-07-03T03:09:08.219Z,18.23
2023-07-03T03:10:10.864Z,18.24
2023-07-03T03:11:13.126Z,18.26
2023-07-03T03:12:15.418Z,18.28
2023-07-03T03:13:17.809Z,18.27
2023-07-03T03:14:20.241Z,18.31
2023-07-03T03:15:22.196Z,18.41
2023-07-03T03:16:24.830Z,18.13
2023-07-03T03:17:26.937Z,18.06
2023-07-03T03:18:29.029Z,18.09
2023-07-03T03:19:30.951Z,18.17
2023-07-03T03:20:33.010Z,18.17
2023-07-03T03:21:35.274Z,18.25
2023-07-03T03:22:37.299Z,18.21
2023-07-03T03:23:39.150Z,18.26
2023-07-03T03:24:41.291Z,18.30
2023-07-03T03:25:43.702Z,18.32
2023-07-03T03:26:45.889Z,18.38
2023-07-03T03:27:47.845Z,18.45
2023-07-03T03:28:49.844Z,18.43
2023-07-03T03:29:51.956Z,18.33
2023-07-03T03:30:54.154Z,18.25
2023-07-03T03:31:56.355Z,18.19
2023-07-03T03:32:58.280Z,18.14
2023-07-03T03:34:00.325Z,18.08
2023-07-03T03:35:02.515Z,18.13
2023-07-03T03:36:04.791Z,18.18
2023-07-03T03:37:07.366Z,18.03
2023-07-03T03:38:09.233Z,17.97
2023-07-03T03:39:11.177Z,17.91
2023-07-03T03:40:13.186Z,18.00
2023-07-03T03:41:15.260Z,18.11
2023-07-03T03:42:18.216Z,17.95
2023-07-03T03:43:20.608Z,17.92
2023-07-03T03:44:22.937Z,18.11
2023-07-03T03:45:25.628Z,18.30
2023-07-03T03:46:27.516Z,18.24
2023-07-03T03:47:29.841Z,18.25
2023-07-03T03:48:34.171Z,18.26
2023-07-03T03:49:37.898Z,18.26
2023-07-03T03:50:39.829Z,18.38
2023-07-03T03:51:41.906Z,18.47
2023-07-03T03:52:44.463Z,18.42
2023-07-03T03:53:46.376Z,18.52
2023-07-03T03:54:48.537Z,18.64
2023-07-03T03:55:52.075Z,18.72
2023-07-03T03:56:54.791Z,18.96
2023-07-03T03:57:57.199Z,18.95
2023-07-03T03:58:59.118Z,18.88
2023-07-03T04:00:01.009Z,18.74
2023-07-03T04:01:03.440Z,18.70
2023-07-03T04:02:05.890Z,18.66
2023-07-03T04:03:07.876Z,18.83
2023-07-03T04:04:09.835Z,18.81
2023-07-03T04:05:12.828Z,18.94
2023-07-03T04:06:17.536Z,18.92
2023-07-03T04:07:19.679Z,18.99
2023-07-03T04:08:21.780Z,18.96
2023-07-03T04:09:23.620Z,19.01
2023-07-03T04:10:25.634Z,18.94
2023-07-03T04:11:29.353Z,18.85
2023-07-03T04:12:31.601Z,18.96
2023-07-03T04:13:33.569Z,19.11
2023-07-03T04:14:35.513Z,19.11
2023-07-03T04:15:52.766Z,19.15
2023-07-03T04:16:58.674Z,19.19
2023-07-03T04:18:01.930Z,19.24
2023-07-03T04:19:03.918Z,19.23
2023-07-03T04:20:14.374Z,19.27
2023-07-03T04:21:18.862Z,19.30
2023-07-03T04:22:21.031Z,19.30
2023-07-03T04:23:23.558Z,19.52
2023-07-03T04:24:25.928Z,19.74
2023-07-03T04:25:28.008Z,19.64
2023-07-03T04:26:29.880Z,19.73
2023-07-03T04:27:31.799Z,19.74
2023-07-03T04:28:33.954Z,19.77
2023-07-03T04:29:35.849Z,19.89
2023-07-03T04:30:38.373Z,19.82
2023-07-03T04:31:40.425Z,19.87
2023-07-03T04:32:42.423Z,19.77
2023-07-03T04:33:46.668Z,19.84
2023-07-03T04:34:48.517Z,19.89
2023-07-03T04:35:50.562Z,19.95
2023-07-03T04:36:52.697Z,20.04
2023-07-03T04:37:54.548Z,20.00
2023-07-03T04:38:58.422Z,20.11
2023-07-03T04:40:00.321Z,20.30
2023-07-03T04:41:02.319Z,20.33
2023-07-03T04:42:04.711Z,20.22
2023-07-03T04:43:09.411Z,20.29
2023-07-03T04:44:13.859Z,20.41
2023-07-03T04:45:17.274Z,20.56
2023-07-03T04:46:26.760Z,20.51
2023-07-03T04:47:28.828Z,20.42
2023-07-03T04:48:32.513Z,20.56
2023-07-03T04:49:34.902Z,20.65
2023-07-03T04:50:37.078Z,20.72
2023-07-03T04:51:41.016Z,20.74
2023-07-03T04:52:45.106Z,20.78
2023-07-03T04:53:46.993Z,20.85
2023-07-03T04:54:49.194Z,21.02
2023-07-03T04:55:52.127Z,20.89
2023-07-03T04:56:55.091Z,20.91
2023-07-03T04:57:58.466Z,20.99
2023-07-03T04:59:00.368Z,21.02
2023-07-03T05:00:02.508Z,21.07
2023-07-03T05:01:06.144Z,21.14
2023-07-03T05:02:08.077Z,21.25
2023-07-03T05:03:10.556Z,21.28
2023-07-03T05:04:13.293Z,21.28
2023-07-03T05:05:17.698Z,21.15
2023-07-03T05:06:19.689Z,21.13
2023-07-03T05:07:23.517Z,21.32
2023-07-03T05:08:25.771Z,21.43
2023-07-03T05:09:27.668Z,21.41
2023-07-03T05:10:30.622Z,21.37
2023-07-03T05:11:34.270Z,21.50
2023-07-03T05:12:37.226Z,21.54
2023-07-03T05:13:39.108Z,21.51
2023-07-03T05:14:40.981Z,21.51
2023-07-03T05:15:43.377Z,21.52
2023-07-03T05:16:45.256Z,21.66
2023-07-03T05:17:52.406Z,21.86
2023-07-03T05:18:54.267Z,21.95
2023-07-03T05:19:56.879Z,21.99
2023-07-03T05:20:59.028Z,22.12
2023-07-03T05:22:00.903Z,22.13
2023-07-03T05:23:02.811Z,22.09
2023-07-03T05:24:04.937Z,22.14
2023-07-03T05:25:08.973Z,22.29
2023-07-03T05:26:11.154Z,22.24
2023-07-03T05:27:13.055Z,22.29
2023-07-03T05:28:15.216Z,22.31
2023-07-03T05:29:17.061Z,22.50
2023-07-03T05:30:19.169Z,22.45
2023-07-03T05:31:23.904Z,22.54
2023-07-03T05:32:26.495Z,22.60
2023-07-03T05:33:29.705Z,22.68
2023-07-03T05:34:32.966Z,22.72
2023-07-03T05:35:42.501Z,22.83
2023-07-03T05:36:50.694Z,22.80
2023-07-03T05:37:52.587Z,22.90
2023-07-03T05:38:54.453Z,22.87
2023-07-03T05:39:56.702Z,22.95
2023-07-03T05:40:58.584Z,22.79
2023-07-03T05:42:00.813Z,22.87
2023-07-03T05:43:02.718Z,22.97
2023-07-03T05:44:04.698Z,23.03
2023-07-03T05:45:06.947Z,23.30
2023-07-03T05:46:08.798Z,23.38
2023-07-03T05:47:11.654Z,23.26
2023-07-03T05:48:13.637Z,23.37
2023-07-03T05:49:15.595Z,23.42
2023-07-03T05:50:17.493Z,23.45
2023-07-03T05:51:19.520Z,23.36
2023-07-03T05:52:21.751Z,23.30
2023-07-03T05:53:25.000Z,23.53
2023-07-03T05:54:27.117Z,23.74
2023-07-03T05:55:28.995Z,23.63
2023-07-03T05:56:30.873Z,23.77
2023-07-03T05:57:33.108Z,23.75
2023-07-03T05:58:34.978Z,23.93
2023-07-03T05:59:38.862Z,23.91
2023-07-03T06:00:41.437Z,24.04
2023-07-03T06:01:44.338Z,24.15
2023-07-03T06:02:48.455Z,24.25
2023-07-03T06:03:51.204Z,24.35
2023-07-03T06:04:53.155Z,24.38
2023-07-03T06:05:55.282Z,24.43
2023-07-03T06:06:57.995Z,24.46
2023-07-03T06:07:59.852Z,24.51
2023-07-03T06:09:01.690Z,24.62
2023-07-03T06:10:04.833Z,24.43
2023-07-03T06:11:06.851Z,24.43
2023-07-03T06:12:09.388Z,24.58
2023-07-03T06:13:11.447Z,24.68
2023-07-03T06:14:18.519Z,24.74
2023-07-03T06:15:20.391Z,24.82
2023-07-03T06:16:22.300Z,24.63
2023-07-03T06:17:26.156Z,24.82
2023-07-03T06:18:28.662Z,24.82
2023-07-03T06:19:31.062Z,25.01
2023-07-03T06:20:34.588Z,24.99
2023-07-03T06:21:36.605Z,25.15
2023-07-03T06:22:42.917Z,25.12
2023-07-03T06:23:44.932Z,25.10
2023-07-03T06:24:47.013Z,25.08
2023-07-03T06:25:49.153Z,25.29
2023-07-03T06:26:51.954Z,25.20
2023-07-03T06:27:54.194Z,25.26
2023-07-03T06:28:56.032Z,25.40
2023-07-03T06:29:57.905Z,25.42
2023-07-03T06:30:59.872Z,25.49
2023-07-03T06:32:01.762Z,25.63
2023-07-03T06:33:03.985Z,25.64
2023-07-03T06:34:05.964Z,25.74
2023-07-03T06:35:08.483Z,25.69
2023-07-03T06:36:10.420Z,25.81
2023-07-03T06:37:12.329Z,25.83
2023-07-03T06:38:14.510Z,25.96
2023-07-03T06:39:16.448Z,26.08
2023-07-03T06:40:19.926Z,26.26
2023-07-03T06:41:22.313Z,26.26
2023-07-03T06:42:24.188Z,26.25
2023-07-03T06:43:29.825Z,26.32
2023-07-03T06:44:31.692Z,26.22
2023-07-03T06:45:38.003Z,26.33
2023-07-03T06:46:40.496Z,26.39
2023-07-03T06:47:42.587Z,26.37
2023-07-03T06:48:44.862Z,26.44
2023-07-03T06:49:46.818Z,26.43
2023-07-03T06:50:48.701Z,26.47
2023-07-03T06:51:50.544Z,26.60
2023-07-03T06:52:52.431Z,26.72
2023-07-03T06:53:54.699Z,26.77
2023-07-03T06:54:56.576Z,26.77
2023-07-03T06:55:59.964Z,26.73
2023-07-03T06:57:02.158Z,26.62
2023-07-03T06:58:04.258Z,26.77
2023-07-03T06:59:06.442Z,26.99
2023-07-03T07:00:09.952Z,27.05
2023-07-03T07:01:13.452Z,27.14
2023-07-03T07:02:15.360Z,27.16
2023-07-03T07:03:17.408Z,27.22
2023-07-03T07:04:19.835Z,27.23
2023-07-03T07:05:22.465Z,27.04
2023-07-03T07:06:30.185Z,27.19
2023-07-03T07:07:32.315Z,27.24
2023-07-03T07:08:34.173Z,27.30
2023-07-03T07:09:36.393Z,27.38
2023-07-03T07:10:41.238Z,27.12
2023-07-03T07:11:43.318Z,27.46
2023-07-03T07:12:45.205Z,27.58
2023-07-03T07:13:48.639Z,27.61
2023-07-03T07:14:50.822Z,27.60
2023-07-03T07:15:52.986Z,27.67
2023-07-03T07:16:55.130Z,27.75
2023-07-03T07:17:57.038Z,27.70
2023-07-03T07:19:03.722Z,27.74
2023-07-03T07:20:06.514Z,27.87
2023-07-03T07:21:09.250Z,28.02
2023-07-03T07:22:11.123Z,28.04
2023-07-03T07:23:13.610Z,28.09
2023-07-03T07:24:23.433Z,28.12
2023-07-03T07:25:25.686Z,28.25
2023-07-03T07:26:34.992Z,28.35
2023-07-03T07:27:37.031Z,28.37
2023-07-03T07:28:38.929Z,28.26
2023-07-03T07:29:41.304Z,28.48
2023-07-03T07:30:43.531Z,28.44
2023-07-03T07:31:45.457Z,28.34
2023-07-03T07:32:53.551Z,28.50
2023-07-03T07:33:55.603Z,28.62
2023-07-03T07:34:57.421Z,28.60
2023-07-03T07:35:59.723Z,28.67
2023-07-03T07:37:01.582Z,28.79
2023-07-03T07:38:03.499Z,28.81
2023-07-03T07:39:05.562Z,28.71
2023-07-03T07:40:08.106Z,28.80
2023-07-03T07:41:10.272Z,28.90
2023-07-03T07:42:12.433Z,29.00
2023-07-03T07:43:14.670Z,29.01
2023-07-03T07:44:16.540Z,28.73
2023-07-03T07:45:18.476Z,28.79
2023-07-03T07:46:21.013Z,28.90
2023-07-03T07:47:22.921Z,28.85
2023-07-03T07:48:25.270Z,28.67
2023-07-03T07:49:29.258Z,28.80
2023-07-03T07:50:35.286Z,28.84
2023-07-03T07:51:37.466Z,29.01
2023-07-03T07:52:39.307Z,29.00
2023-07-03T07:53:41.221Z,28.57
2023-07-03T07:54:43.588Z,28.66
2023-07-03T07:55:45.860Z,28.65
2023-07-03T07:56:48.036Z,28.47
2023-07-03T07:57:50.177Z,28.47
2023-07-03T07:58:53.095Z,28.58
2023-07-03T07:59:55.069Z,28.80
2023-07-03T08:00:58.919Z,28.83
2023-07-03T08:02:01.476Z,28.78
2023-07-03T08:03:05.498Z,28.76
2023-07-03T08:04:09.408Z,28.87
2023-07-03T08:05:11.398Z,29.02
2023-07-03T08:06:14.751Z,29.11
2023-07-03T08:07:16.963Z,29.22
2023-07-03T08:08:18.826Z,29.34
2023-07-03T08:09:24.250Z,29.42
2023-07-03T08:10:26.160Z,29.39
2023-07-03T08:11:29.755Z,29.35
2023-07-03T08:12:32.129Z,29.39
2023-07-03T08:13:35.319Z,29.34
2023-07-03T08:14:37.137Z,29.27
2023-07-03T08:15:38.989Z,29.33
2023-07-03T08:16:40.911Z,29.41
2023-07-03T08:17:43.139Z,29.27
2023-07-03T08:18:47.675Z,29.37
2023-07-03T08:19:51.437Z,29.24
2023-07-03T08:20:54.186Z,29.48
2023-07-03T08:21:56.743Z,29.44
2023-07-03T08:22:58.883Z,29.21
2023-07-03T08:24:00.771Z,29.45
2023-07-03T08:25:03.583Z,29.58
2023-07-03T08:26:05.586Z,29.49
2023-07-03T08:27:07.921Z,29.47
2023-07-03T08:28:11.065Z,29.67
2023-07-03T08:29:12.909Z,29.70
2023-07-03T08:30:15.678Z,29.70
2023-07-03T08:31:18.084Z,29.84
2023-07-03T08:32:21.072Z,29.93
2023-07-03T08:33:23.325Z,29.88
2023-07-03T08:34:25.353Z,29.81
2023-07-03T08:37:36.735Z,30.06
2023-07-03T08:38:38.873Z,30.09
2023-07-03T08:39:40.885Z,30.13
2023-07-03T08:40:43.493Z,30.29
2023-07-03T08:41:52.553Z,30.34
2023-07-03T08:43:00.079Z,30.51
2023-07-03T08:44:02.592Z,30.50
2023-07-03T08:45:07.745Z,30.27
2023-07-03T08:46:21.108Z,30.12
2023-07-03T08:47:28.168Z,30.40
2023-07-03T08:48:33.564Z,30.18
2023-07-03T08:49:35.991Z,30.24
2023-07-03T08:50:39.301Z,30.21
2023-07-03T08:51:41.567Z,29.95
2023-07-03T08:52:51.102Z,30.04
2023-07-03T08:53:56.458Z,30.18
2023-07-03T08:54:59.242Z,29.96
2023-07-03T08:56:08.198Z,30.00
2023-07-03T08:57:12.043Z,29.91
2023-07-03T08:58:14.087Z,30.08
2023-07-03T08:59:16.231Z,30.14
2023-07-03T09:00:19.455Z,30.05
2023-07-03T09:01:47.866Z,30.12
2023-07-03T09:03:10.605Z,30.17
2023-07-03T09:04:27.838Z,30.10
2023-07-03T09:05:29.935Z,30.45
2023-07-03T09:06:34.576Z,30.43
2023-07-03T09:08:08.577Z,30.20
2023-07-03T09:09:43.705Z,30.04
2023-07-03T09:10:50.517Z,30.36
2023-07-03T09:12:26.391Z,30.30
2023-07-03T09:13:43.660Z,30.09
2023-07-03T09:14:53.801Z,29.94
2023-07-03T09:16:05.146Z,30.10
2023-07-03T09:17:11.489Z,30.16
2023-07-03T09:18:20.708Z,30.16
2023-07-03T09:19:26.533Z,30.23
2023-07-03T09:20:30.634Z,30.27
2023-07-03T09:21:35.126Z,30.48
2023-07-03T09:23:03.388Z,30.40
2023-07-03T09:24:31.566Z,30.57
2023-07-03T09:25:42.217Z,30.74
2023-07-03T09:26:53.474Z,30.70
2023-07-03T09:27:57.653Z,30.65
2023-07-03T09:29:00.145Z,30.46
2023-07-03T09:30:05.784Z,30.52
2023-07-03T09:31:07.758Z,30.28
2023-07-03T09:32:25.089Z,30.14
2023-07-03T09:33:27.141Z,30.35
2023-07-03T09:34:48.972Z,30.51
2023-07-03T09:35:51.059Z,30.50
2023-07-03T09:37:00.083Z,30.41
2023-07-03T09:38:06.133Z,30.46
2023-07-03T09:39:11.948Z,30.73
2023-07-03T09:40:23.556Z,30.85
2023-07-03T09:41:28.730Z,30.90
2023-07-03T09:42:33.382Z,31.03
2023-07-03T09:43:44.173Z,31.05
2023-07-03T09:44:46.005Z,31.01
2023-07-03T09:45:49.473Z,30.80
2023-07-03T09:46:51.549Z,30.77
2023-07-03T09:47:59.569Z,30.86
2023-07-03T09:49:06.171Z,30.56
2023-07-03T09:50:09.815Z,30.73
2023-07-03T09:51:20.863Z,30.86
2023-07-03T09:52:24.631Z,30.75
2023-07-03T09:53:28.079Z,30.90
2023-07-03T09:54:32.883Z,30.97
2023-07-03T09:55:35.795Z,31.09
2023-07-03T09:56:38.950Z,31.07
2023-07-03T09:57:40.814Z,30.79
2023-07-03T09:58:49.377Z,30.48
2023-07-03T10:00:20.106Z,30.70
2023-07-03T10:03:36.550Z,30.96
2023-07-03T10:07:07.069Z,31.19
2023-07-03T10:08:10.496Z,30.99
2023-07-03T10:11:56.835Z,31.29
2023-07-03T10:13:33.141Z,31.09
2023-07-03T10:15:13.926Z,31.39
2023-07-03T10:16:16.431Z,30.94
2023-07-03T10:17:50.395Z,31.40
2023-07-03T10:18:57.158Z,31.57
2023-07-03T10:20:04.899Z,30.98
2023-07-03T10:21:12.236Z,31.05
2023-07-03T10:22:15.663Z,31.24
2023-07-03T10:23:24.571Z,31.17
2023-07-03T10:24:26.809Z,30.89
2023-07-03T10:25:33.515Z,30.98
2023-07-03T10:26:44.133Z,30.96
2023-07-03T10:27:47.239Z,31.26
2023-07-03T10:29:13.018Z,31.11
2023-07-03T10:30:19.589Z,30.94
2023-07-03T10:31:44.514Z,30.96
2023-07-03T10:32:53.251Z,30.56
2023-07-03T10:34:04.540Z,30.70
2023-07-03T10:35:19.536Z,30.93
2023-07-03T10:36:27.332Z,30.54
2023-07-03T10:37:34.080Z,30.56
2023-07-03T10:38:45.124Z,30.73
2023-07-03T10:40:18.794Z,30.81
2023-07-03T10:41:32.049Z,30.88
2023-07-03T10:42:49.695Z,30.70
2023-07-03T10:43:57.688Z,30.67
2023-07-03T10:45:07.292Z,30.20
2023-07-03T10:46:17.244Z,29.82
2023-07-03T10:47:48.262Z,29.72
2023-07-03T10:48:54.544Z,29.90
2023-07-03T10:49:58.358Z,29.80
2023-07-03T10:51:18.356Z,29.55
2023-07-03T10:52:35.724Z,29.62
2023-07-03T10:53:54.153Z,29.99
2023-07-03T10:55:17.933Z,30.36
2023-07-03T10:56:38.268Z,30.34
2023-07-03T10:57:58.740Z,30.47
2023-07-03T10:59:03.250Z,30.31
2023-07-03T11:00:13.605Z,29.95
2023-07-03T11:01:19.145Z,30.01
2023-07-03T11:02:55.108Z,30.27
2023-07-03T11:04:24.677Z,30.50
2023-07-03T11:05:32.129Z,30.65
2023-07-03T11:06:55.177Z,30.66
2023-07-03T11:08:12.184Z,30.87
2023-07-03T11:09:35.865Z,30.89
2023-07-03T11:10:57.019Z,30.62
2023-07-03T11:12:13.506Z,30.39
2023-07-03T11:13:25.843Z,30.32
2023-07-03T11:14:40.964Z,30.48
2023-07-03T11:15:47.584Z,30.44
2023-07-03T11:17:13.963Z,30.73
2023-07-03T11:23:36.603Z,30.95
2023-07-03T11:25:10.699Z,30.85
2023-07-03T11:28:01.962Z,30.59
2023-07-03T11:29:06.863Z,30.85
2023-07-03T11:30:10.024Z,30.91
2023-07-03T11:31:15.380Z,30.96
2023-07-03T11:32:18.796Z,30.94
2023-07-03T11:33:22.577Z,31.33
2023-07-03T11:36:50.446Z,31.44
2023-07-03T11:41:00.508Z,30.92
2023-07-03T11:44:31.781Z,31.15
2023-07-03T11:45:33.693Z,31.44
2023-07-03T11:46:35.600Z,31.25
2023-07-03T11:47:37.510Z,31.53
2023-07-03T11:48:39.401Z,31.32
2023-07-03T11:49:49.840Z,30.65
2023-07-03T11:50:57.994Z,31.12
2023-07-03T11:52:02.271Z,31.21
2023-07-03T11:53:04.265Z,31.14
2023-07-03T11:54:20.818Z,30.71
2023-07-03T11:55:36.917Z,30.45
2023-07-03T11:56:40.551Z,30.57
2023-07-03T11:57:49.952Z,30.51
2023-07-03T11:59:13.445Z,30.66
2023-07-03T12:00:23.677Z,30.75
2023-07-03T12:01:33.108Z,30.81
2023-07-03T12:02:41.126Z,31.18
2023-07-03T12:04:16.097Z,31.11
2023-07-03T12:05:42.942Z,31.01
2023-07-03T12:06:46.488Z,31.37
2023-07-03T12:07:48.984Z,31.44
2023-07-03T12:08:51.093Z,31.57
2023-07-03T12:09:53.035Z,31.46
2023-07-03T12:11:03.744Z,31.56
2023-07-03T12:12:14.482Z,31.37
2023-07-03T12:13:28.354Z,31.26
2023-07-03T12:14:42.948Z,31.43
2023-07-03T12:15:44.884Z,31.54
2023-07-03T12:16:48.702Z,31.78
2023-07-03T12:18:03.259Z,31.78
2023-07-03T12:19:13.445Z,31.94
2023-07-03T12:20:22.931Z,31.97
2023-07-03T12:21:25.458Z,31.92
2023-07-03T12:22:29.185Z,31.84
2023-07-03T12:23:40.582Z,31.83
2023-07-03T12:24:42.894Z,31.69
2023-07-03T12:25:44.808Z,31.78
2023-07-03T12:27:07.072Z,31.77
2023-07-03T12:28:12.308Z,31.41
2023-07-03T12:29:18.159Z,31.38
2023-07-03T12:30:31.613Z,31.46
2023-07-03T12:31:33.641Z,31.48
2023-07-03T12:32:37.214Z,31.00
2023-07-03T12:33:52.859Z,31.15
2023-07-03T12:34:55.588Z,31.41
2023-07-03T12:35:57.432Z,31.09
2023-07-03T12:37:06.062Z,30.89
2023-07-03T12:38:10.741Z,30.93
2023-07-03T12:39:15.776Z,30.98
2023-07-03T12:40:20.219Z,31.09
2023-07-03T12:41:29.953Z,30.88
2023-07-03T12:42:32.097Z,30.99
2023-07-03T12:43:35.707Z,30.90
2023-07-03T12:44:37.728Z,31.03
2023-07-03T12:45:39.946Z,30.89
2023-07-03T12:46:44.389Z,30.86
2023-07-03T12:48:00.474Z,30.98
2023-07-03T12:49:18.364Z,31.11
2023-07-03T12:50:20.233Z,31.23
2023-07-03T12:51:22.386Z,31.29
2023-07-03T12:52:26.059Z,31.03
2023-07-03T12:53:33.431Z,31.19
2023-07-03T12:54:35.294Z,31.24
2023-07-03T12:55:38.945Z,31.35
2023-07-03T12:56:43.166Z,31.09
2023-07-03T12:57:45.873Z,30.94
2023-07-03T12:58:47.820Z,31.11
2023-07-03T12:59:53.087Z,31.26
2023-07-03T13:01:02.726Z,31.19
2023-07-03T13:02:05.017Z,31.11
2023-07-03T13:03:13.456Z,31.15
2023-07-03T13:04:16.889Z,31.16
2023-07-03T13:05:22.491Z,30.82
2023-07-03T13:06:30.586Z,30.70
2023-07-03T13:07:34.088Z,30.50
2023-07-03T13:08:36.131Z,30.51
2023-07-03T13:09:44.108Z,30.30
2023-07-03T13:11:03.413Z,30.36
2023-07-03T13:12:18.331Z,30.31
2023-07-03T13:13:20.703Z,30.21
2023-07-03T13:14:26.135Z,29.97
2023-07-03T13:15:40.823Z,30.12
2023-07-03T13:16:48.794Z,30.37
2023-07-03T13:18:03.984Z,30.01
2023-07-03T13:19:06.415Z,30.14
2023-07-03T13:20:29.299Z,29.90
2023-07-03T13:21:33.676Z,30.00
2023-07-03T13:22:35.598Z,29.84
2023-07-03T13:23:42.749Z,29.88
2023-07-03T13:24:49.817Z,29.94
2023-07-03T13:25:54.723Z,29.68
2023-07-03T13:26:58.340Z,29.73
2023-07-03T13:28:01.683Z,29.73
2023-07-03T13:29:05.018Z,29.65
2023-07-03T13:30:21.387Z,29.75
2023-07-03T13:31:29.673Z,29.97
2023-07-03T13:32:52.190Z,30.00
2023-07-03T13:34:06.655Z,29.89
2023-07-03T13:35:09.152Z,29.87
2023-07-03T13:36:33.853Z,29.91
2023-07-03T13:37:39.987Z,29.72
2023-07-03T13:38:41.851Z,29.75
2023-07-03T13:39:46.552Z,29.96
2023-07-03T13:40:56.154Z,29.96
2023-07-03T13:41:58.133Z,29.65
2023-07-03T13:43:00.014Z,29.75
2023-07-03T13:44:04.262Z,29.76
2023-07-03T13:45:09.056Z,29.65
2023-07-03T13:46:11.240Z,29.88
2023-07-03T13:47:13.180Z,29.73
2023-07-03T13:48:15.070Z,29.82
2023-07-03T13:49:18.174Z,29.69
2023-07-03T13:50:20.509Z,29.76
2023-07-03T13:51:23.226Z,29.88
2023-07-03T13:52:25.164Z,29.48
2023-07-03T13:53:27.636Z,29.36
2023-07-03T13:54:29.542Z,29.31
2023-07-03T13:55:31.627Z,29.43
2023-07-03T13:56:37.716Z,29.60
2023-07-03T13:57:39.589Z,29.82
2023-07-03T13:58:41.461Z,29.99
2023-07-03T13:59:43.263Z,29.85
2023-07-03T14:00:45.094Z,29.93
2023-07-03T14:01:47.955Z,29.86
2023-07-03T14:02:50.477Z,29.89
2023-07-03T14:03:53.034Z,29.75
2023-07-03T14:04:54.995Z,29.61
2023-07-03T14:05:56.929Z,29.64
2023-07-03T14:06:59.165Z,29.67
2023-07-03T14:08:01.038Z,29.42
2023-07-03T14:09:03.559Z,29.18
2023-07-03T14:10:06.183Z,29.02
2023-07-03T14:11:11.410Z,28.77
2023-07-03T14:12:13.607Z,29.16
2023-07-03T14:13:15.585Z,29.06
2023-07-03T14:14:17.521Z,29.03
2023-07-03T14:15:26.741Z,28.84
2023-07-03T14:16:29.439Z,28.81
2023-07-03T14:17:31.799Z,28.84
2023-07-03T14:18:33.882Z,28.87
2023-07-03T14:19:35.754Z,29.12
2023-07-03T14:20:37.789Z,29.12
2023-07-03T14:21:39.714Z,28.99
2023-07-03T14:22:42.811Z,28.89
2023-07-03T14:23:45.665Z,28.78
2023-07-03T14:24:47.589Z,28.81
2023-07-03T14:25:49.815Z,28.89